sensor_id;sensor_type;location;lat;lon;timestamp;P1;durP1;ratioP1;P2;durP2;ratioP2
64313;SDS011;50650;48.180;11.524;2022-11-25T00:00:33;4.25;;;2.00;;
64313;SDS011;50650;48.180;11.524;2022-11-25T00:02:59;4.68;;;1.92;;
64313;SDS011;50650;48.180;11.524;2022-11-25T00:05:26;4.25;;;2.03;;
64313;SDS011;50650;48.180;11.524;2022-11-25T00:07:52;3.28;;;1.88;;
64313;SDS011;50650;48.180;11.524;2022-11-25T00:10:20;3.78;;;1.83;;
64313;SDS011;50650;48.180;11.524;2022-11-25T00:12:47;5.03;;;2.08;;
64313;SDS011;50650;48.180;11.524;2022-11-25T00:15:28;2.80;;;1.60;;
64313;SDS011;50650;48.180;11.524;2022-11-25T00:17:54;4.30;;;2.10;;
64313;SDS011;50650;48.180;11.524;2022-11-25T00:20:21;3.55;;;2.17;;
64313;SDS011;50650;48.180;11.524;2022-11-25T00:22:47;5.57;;;2.40;;
64313;SDS011;50650;48.180;11.524;2022-11-25T00:25:14;5.13;;;2.70;;
64313;SDS011;50650;48.180;11.524;2022-11-25T00:27:41;4.20;;;1.85;;
64313;SDS011;50650;48.180;11.524;2022-11-25T00:30:08;4.22;;;1.73;;
64313;SDS011;50650;48.180;11.524;2022-11-25T00:32:36;5.28;;;1.80;;
64313;SDS011;50650;48.180;11.524;2022-11-25T00:35:02;4.40;;;1.80;;
64313;SDS011;50650;48.180;11.524;2022-11-25T00:37:30;8.68;;;3.40;;
64313;SDS011;50650;48.180;11.524;2022-11-25T00:39:57;12.00;;;3.63;;
64313;SDS011;50650;48.180;11.524;2022-11-25T00:42:24;15.82;;;5.13;;
64313;SDS011;50650;48.180;11.524;2022-11-25T00:45:09;8.43;;;2.72;;
64313;SDS011;50650;48.180;11.524;2022-11-25T00:47:36;5.65;;;1.80;;
64313;SDS011;50650;48.180;11.524;2022-11-25T00:50:03;3.80;;;1.63;;
64313;SDS011;50650;48.180;11.524;2022-11-25T00:52:30;3.67;;;1.40;;
64313;SDS011;50650;48.180;11.524;2022-11-25T00:55:01;4.65;;;1.70;;
64313;SDS011;50650;48.180;11.524;2022-11-25T00:57:27;3.67;;;1.50;;
64313;SDS011;50650;48.180;11.524;2022-11-25T00:59:54;2.63;;;1.45;;
64313;SDS011;50650;48.180;11.524;2022-11-25T01:02:22;4.47;;;1.75;;
64313;SDS011;50650;48.180;11.524;2022-11-25T01:04:48;2.38;;;1.30;;
64313;SDS011;50650;48.180;11.524;2022-11-25T01:07:15;2.70;;;1.52;;
64313;SDS011;50650;48.180;11.524;2022-11-25T01:09:43;3.13;;;1.40;;
64313;SDS011;50650;48.180;11.524;2022-11-25T01:12:09;1.67;;;1.17;;
64313;SDS011;50650;48.180;11.524;2022-11-25T01:14:36;2.58;;;1.45;;
64313;SDS011;50650;48.180;11.524;2022-11-25T01:17:02;3.90;;;1.75;;
64313;SDS011;50650;48.180;11.524;2022-11-25T01:19:30;2.63;;;1.50;;
64313;SDS011;50650;48.180;11.524;2022-11-25T01:21:57;4.35;;;1.77;;
64313;SDS011;50650;48.180;11.524;2022-11-25T01:24:26;5.43;;;1.92;;
64313;SDS011;50650;48.180;11.524;2022-11-25T01:26:53;2.70;;;1.42;;
64313;SDS011;50650;48.180;11.524;2022-11-25T01:29:20;5.38;;;2.20;;
64313;SDS011;50650;48.180;11.524;2022-11-25T01:31:47;3.08;;;1.67;;
64313;SDS011;50650;48.180;11.524;2022-11-25T01:34:14;2.67;;;1.80;;
64313;SDS011;50650;48.180;11.524;2022-11-25T01:36:43;5.38;;;2.20;;
64313;SDS011;50650;48.180;11.524;2022-11-25T01:39:10;7.38;;;1.88;;
64313;SDS011;50650;48.180;11.524;2022-11-25T01:41:39;3.15;;;1.38;;
64313;SDS011;50650;48.180;11.524;2022-11-25T01:44:10;2.75;;;1.45;;
64313;SDS011;50650;48.180;11.524;2022-11-25T01:46:42;2.63;;;1.67;;
64313;SDS011;50650;48.180;11.524;2022-11-25T01:49:12;3.40;;;1.40;;
64313;SDS011;50650;48.180;11.524;2022-11-25T01:51:44;3.42;;;1.52;;
64313;SDS011;50650;48.180;11.524;2022-11-25T01:54:12;3.53;;;1.48;;
64313;SDS011;50650;48.180;11.524;2022-11-25T01:56:43;2.90;;;1.50;;
64313;SDS011;50650;48.180;11.524;2022-11-25T01:59:11;2.08;;;1.17;;
64313;SDS011;50650;48.180;11.524;2022-11-25T02:01:38;2.80;;;1.52;;
64313;SDS011;50650;48.180;11.524;2022-11-25T02:04:05;2.40;;;1.45;;
64313;SDS011;50650;48.180;11.524;2022-11-25T02:06:33;4.05;;;1.98;;
64313;SDS011;50650;48.180;11.524;2022-11-25T02:09:03;4.15;;;1.80;;
64313;SDS011;50650;48.180;11.524;2022-11-25T02:11:31;4.38;;;1.63;;
64313;SDS011;50650;48.180;11.524;2022-11-25T02:13:59;4.82;;;1.95;;
64313;SDS011;50650;48.180;11.524;2022-11-25T02:16:26;4.00;;;1.75;;
64313;SDS011;50650;48.180;11.524;2022-11-25T02:18:53;4.50;;;1.65;;
64313;SDS011;50650;48.180;11.524;2022-11-25T02:21:24;3.00;;;1.70;;
64313;SDS011;50650;48.180;11.524;2022-11-25T02:23:52;4.75;;;1.67;;
64313;SDS011;50650;48.180;11.524;2022-11-25T02:26:22;4.70;;;1.75;;
64313;SDS011;50650;48.180;11.524;2022-11-25T02:28:49;4.32;;;1.88;;
64313;SDS011;50650;48.180;11.524;2022-11-25T02:31:17;2.45;;;1.50;;
64313;SDS011;50650;48.180;11.524;2022-11-25T02:33:44;6.68;;;1.88;;
64313;SDS011;50650;48.180;11.524;2022-11-25T02:36:12;4.82;;;1.70;;
64313;SDS011;50650;48.180;11.524;2022-11-25T02:38:41;2.75;;;1.50;;
64313;SDS011;50650;48.180;11.524;2022-11-25T02:41:09;3.42;;;1.45;;
64313;SDS011;50650;48.180;11.524;2022-11-25T02:43:42;3.90;;;1.88;;
64313;SDS011;50650;48.180;11.524;2022-11-25T02:46:10;4.68;;;1.88;;
64313;SDS011;50650;48.180;11.524;2022-11-25T02:48:38;3.35;;;1.70;;
64313;SDS011;50650;48.180;11.524;2022-11-25T02:51:06;3.60;;;1.70;;
64313;SDS011;50650;48.180;11.524;2022-11-25T02:53:34;2.83;;;1.80;;
64313;SDS011;50650;48.180;11.524;2022-11-25T02:56:00;2.97;;;1.23;;
64313;SDS011;50650;48.180;11.524;2022-11-25T02:58:27;3.80;;;1.65;;
64313;SDS011;50650;48.180;11.524;2022-11-25T03:00:55;4.35;;;2.08;;
64313;SDS011;50650;48.180;11.524;2022-11-25T03:03:22;3.08;;;1.80;;
64313;SDS011;50650;48.180;11.524;2022-11-25T03:05:54;3.67;;;1.80;;
64313;SDS011;50650;48.180;11.524;2022-11-25T03:08:21;4.53;;;1.90;;
64313;SDS011;50650;48.180;11.524;2022-11-25T03:10:47;3.08;;;1.90;;
64313;SDS011;50650;48.180;11.524;2022-11-25T03:13:14;4.22;;;1.40;;
64313;SDS011;50650;48.180;11.524;2022-11-25T03:15:40;3.00;;;1.80;;
64313;SDS011;50650;48.180;11.524;2022-11-25T03:18:08;3.67;;;1.55;;
64313;SDS011;50650;48.180;11.524;2022-11-25T03:20:35;4.70;;;1.50;;
64313;SDS011;50650;48.180;11.524;2022-11-25T03:23:02;2.22;;;1.30;;
64313;SDS011;50650;48.180;11.524;2022-11-25T03:25:29;3.55;;;1.80;;
64313;SDS011;50650;48.180;11.524;2022-11-25T03:27:55;4.20;;;1.73;;
64313;SDS011;50650;48.180;11.524;2022-11-25T03:30:24;3.35;;;1.55;;
64313;SDS011;50650;48.180;11.524;2022-11-25T03:32:51;3.72;;;1.95;;
64313;SDS011;50650;48.180;11.524;2022-11-25T03:35:19;5.07;;;1.80;;
64313;SDS011;50650;48.180;11.524;2022-11-25T03:37:46;2.67;;;1.70;;
64313;SDS011;50650;48.180;11.524;2022-11-25T03:40:13;2.47;;;1.50;;
64313;SDS011;50650;48.180;11.524;2022-11-25T03:42:40;2.72;;;1.50;;
64313;SDS011;50650;48.180;11.524;2022-11-25T03:45:07;3.97;;;1.40;;
64313;SDS011;50650;48.180;11.524;2022-11-25T03:47:36;4.47;;;2.10;;
64313;SDS011;50650;48.180;11.524;2022-11-25T03:50:03;3.13;;;1.90;;
64313;SDS011;50650;48.180;11.524;2022-11-25T03:52:32;3.53;;;2.00;;
64313;SDS011;50650;48.180;11.524;2022-11-25T03:54:59;5.35;;;1.95;;
64313;SDS011;50650;48.180;11.524;2022-11-25T03:57:25;6.43;;;1.80;;
64313;SDS011;50650;48.180;11.524;2022-11-25T03:59:52;3.17;;;1.73;;
64313;SDS011;50650;48.180;11.524;2022-11-25T04:02:18;2.90;;;1.90;;
64313;SDS011;50650;48.180;11.524;2022-11-25T04:04:45;2.53;;;1.63;;
64313;SDS011;50650;48.180;11.524;2022-11-25T04:07:11;2.90;;;1.67;;
64313;SDS011;50650;48.180;11.524;2022-11-25T04:09:39;4.63;;;2.25;;
64313;SDS011;50650;48.180;11.524;2022-11-25T04:12:05;4.38;;;1.90;;
64313;SDS011;50650;48.180;11.524;2022-11-25T04:14:49;4.65;;;2.13;;
64313;SDS011;50650;48.180;11.524;2022-11-25T04:17:15;3.40;;;1.80;;
64313;SDS011;50650;48.180;11.524;2022-11-25T04:19:42;3.28;;;2.08;;
64313;SDS011;50650;48.180;11.524;2022-11-25T04:22:08;2.65;;;1.60;;
64313;SDS011;50650;48.180;11.524;2022-11-25T04:24:35;2.92;;;1.75;;
64313;SDS011;50650;48.180;11.524;2022-11-25T04:27:03;3.50;;;2.20;;
64313;SDS011;50650;48.180;11.524;2022-11-25T04:29:29;3.35;;;1.80;;
64313;SDS011;50650;48.180;11.524;2022-11-25T04:31:56;3.70;;;1.70;;
64313;SDS011;50650;48.180;11.524;2022-11-25T04:34:22;3.90;;;2.00;;
64313;SDS011;50650;48.180;11.524;2022-11-25T04:36:49;3.95;;;2.17;;
64313;SDS011;50650;48.180;11.524;2022-11-25T04:39:16;3.00;;;1.92;;
64313;SDS011;50650;48.180;11.524;2022-11-25T04:41:42;4.00;;;2.13;;
64313;SDS011;50650;48.180;11.524;2022-11-25T04:44:10;3.80;;;2.03;;
64313;SDS011;50650;48.180;11.524;2022-11-25T04:46:37;3.85;;;2.10;;
64313;SDS011;50650;48.180;11.524;2022-11-25T04:49:06;3.25;;;2.20;;
64313;SDS011;50650;48.180;11.524;2022-11-25T04:51:33;4.70;;;2.15;;
64313;SDS011;50650;48.180;11.524;2022-11-25T04:53:59;3.47;;;1.92;;
64313;SDS011;50650;48.180;11.524;2022-11-25T04:56:25;3.60;;;1.95;;
64313;SDS011;50650;48.180;11.524;2022-11-25T04:58:52;5.57;;;2.28;;
64313;SDS011;50650;48.180;11.524;2022-11-25T05:01:37;3.53;;;2.20;;
64313;SDS011;50650;48.180;11.524;2022-11-25T05:04:04;6.18;;;2.53;;
64313;SDS011;50650;48.180;11.524;2022-11-25T05:06:30;5.20;;;2.45;;
64313;SDS011;50650;48.180;11.524;2022-11-25T05:08:57;5.53;;;2.47;;
64313;SDS011;50650;48.180;11.524;2022-11-25T05:11:23;3.05;;;1.67;;
64313;SDS011;50650;48.180;11.524;2022-11-25T05:13:50;4.68;;;2.30;;
64313;SDS011;50650;48.180;11.524;2022-11-25T05:16:19;3.55;;;2.42;;
64313;SDS011;50650;48.180;11.524;2022-11-25T05:18:47;3.13;;;2.08;;
64313;SDS011;50650;48.180;11.524;2022-11-25T05:21:13;3.58;;;2.00;;
64313;SDS011;50650;48.180;11.524;2022-11-25T05:23:40;4.78;;;2.33;;
64313;SDS011;50650;48.180;11.524;2022-11-25T05:26:06;4.68;;;2.30;;
64313;SDS011;50650;48.180;11.524;2022-11-25T05:28:33;5.63;;;2.35;;
64313;SDS011;50650;48.180;11.524;2022-11-25T05:30:59;5.68;;;2.65;;
64313;SDS011;50650;48.180;11.524;2022-11-25T05:33:26;6.30;;;2.45;;
64313;SDS011;50650;48.180;11.524;2022-11-25T05:35:54;4.18;;;2.13;;
64313;SDS011;50650;48.180;11.524;2022-11-25T05:38:22;4.93;;;2.72;;
64313;SDS011;50650;48.180;11.524;2022-11-25T05:40:48;5.82;;;2.42;;
64313;SDS011;50650;48.180;11.524;2022-11-25T05:43:15;4.95;;;2.95;;
64313;SDS011;50650;48.180;11.524;2022-11-25T05:45:41;6.90;;;2.58;;
64313;SDS011;50650;48.180;11.524;2022-11-25T05:48:08;3.90;;;1.80;;
64313;SDS011;50650;48.180;11.524;2022-11-25T05:50:35;4.07;;;2.13;;
64313;SDS011;50650;48.180;11.524;2022-11-25T05:53:03;4.03;;;2.03;;
64313;SDS011;50650;48.180;11.524;2022-11-25T05:55:30;3.45;;;1.70;;
64313;SDS011;50650;48.180;11.524;2022-11-25T05:57:56;2.38;;;1.30;;
64313;SDS011;50650;48.180;11.524;2022-11-25T06:00:23;2.58;;;1.40;;
64313;SDS011;50650;48.180;11.524;2022-11-25T06:02:50;4.03;;;1.58;;
64313;SDS011;50650;48.180;11.524;2022-11-25T06:05:16;3.72;;;1.90;;
64313;SDS011;50650;48.180;11.524;2022-11-25T06:07:43;3.10;;;1.83;;
64313;SDS011;50650;48.180;11.524;2022-11-25T06:10:11;3.58;;;2.22;;
64313;SDS011;50650;48.180;11.524;2022-11-25T06:12:37;3.55;;;1.80;;
64313;SDS011;50650;48.180;11.524;2022-11-25T06:15:04;4.00;;;1.92;;
64313;SDS011;50650;48.180;11.524;2022-11-25T06:17:32;3.15;;;1.70;;
64313;SDS011;50650;48.180;11.524;2022-11-25T06:19:58;3.47;;;1.85;;
64313;SDS011;50650;48.180;11.524;2022-11-25T06:22:25;2.70;;;1.70;;
64313;SDS011;50650;48.180;11.524;2022-11-25T06:24:51;2.35;;;1.70;;
64313;SDS011;50650;48.180;11.524;2022-11-25T06:27:19;2.92;;;1.63;;
64313;SDS011;50650;48.180;11.524;2022-11-25T06:29:45;3.85;;;1.60;;
64313;SDS011;50650;48.180;11.524;2022-11-25T06:32:12;6.55;;;1.50;;
64313;SDS011;50650;48.180;11.524;2022-11-25T06:34:38;2.05;;;1.40;;
64313;SDS011;50650;48.180;11.524;2022-11-25T06:37:06;2.63;;;1.63;;
64313;SDS011;50650;48.180;11.524;2022-11-25T06:39:33;5.25;;;1.85;;
64313;SDS011;50650;48.180;11.524;2022-11-25T06:41:59;2.80;;;1.50;;
64313;SDS011;50650;48.180;11.524;2022-11-25T06:44:27;2.83;;;1.42;;
64313;SDS011;50650;48.180;11.524;2022-11-25T06:46:54;2.42;;;1.27;;
64313;SDS011;50650;48.180;11.524;2022-11-25T06:49:20;5.22;;;1.40;;
64313;SDS011;50650;48.180;11.524;2022-11-25T06:51:47;3.13;;;1.40;;
64313;SDS011;50650;48.180;11.524;2022-11-25T06:54:14;2.40;;;1.00;;
64313;SDS011;50650;48.180;11.524;2022-11-25T06:56:41;7.95;;;1.65;;
64313;SDS011;50650;48.180;11.524;2022-11-25T06:59:07;5.47;;;1.25;;
64313;SDS011;50650;48.180;11.524;2022-11-25T07:01:35;2.35;;;1.15;;
64313;SDS011;50650;48.180;11.524;2022-11-25T07:04:03;1.83;;;1.15;;
64313;SDS011;50650;48.180;11.524;2022-11-25T07:06:30;2.60;;;1.02;;
64313;SDS011;50650;48.180;11.524;2022-11-25T07:08:57;4.28;;;1.30;;
64313;SDS011;50650;48.180;11.524;2022-11-25T07:11:24;6.63;;;1.30;;
64313;SDS011;50650;48.180;11.524;2022-11-25T07:13:52;2.58;;;1.42;;
64313;SDS011;50650;48.180;11.524;2022-11-25T07:16:20;1.50;;;0.95;;
64313;SDS011;50650;48.180;11.524;2022-11-25T07:18:47;1.70;;;1.10;;
64313;SDS011;50650;48.180;11.524;2022-11-25T07:21:15;1.90;;;1.20;;
64313;SDS011;50650;48.180;11.524;2022-11-25T07:23:44;2.20;;;1.38;;
64313;SDS011;50650;48.180;11.524;2022-11-25T07:26:12;5.35;;;1.38;;
64313;SDS011;50650;48.180;11.524;2022-11-25T07:28:39;2.88;;;1.02;;
64313;SDS011;50650;48.180;11.524;2022-11-25T07:31:06;3.00;;;1.20;;
64313;SDS011;50650;48.180;11.524;2022-11-25T07:33:34;2.30;;;1.30;;
64313;SDS011;50650;48.180;11.524;2022-11-25T07:36:02;1.77;;;0.93;;
64313;SDS011;50650;48.180;11.524;2022-11-25T07:38:30;2.40;;;1.13;;
64313;SDS011;50650;48.180;11.524;2022-11-25T07:41:01;2.55;;;1.20;;
64313;SDS011;50650;48.180;11.524;2022-11-25T07:43:29;1.98;;;0.80;;
64313;SDS011;50650;48.180;11.524;2022-11-25T07:45:55;5.38;;;1.13;;
64313;SDS011;50650;48.180;11.524;2022-11-25T07:48:22;2.35;;;1.20;;
64313;SDS011;50650;48.180;11.524;2022-11-25T07:50:49;2.25;;;1.00;;
64313;SDS011;50650;48.180;11.524;2022-11-25T07:53:18;3.75;;;1.40;;
64313;SDS011;50650;48.180;11.524;2022-11-25T07:55:45;2.78;;;0.95;;
64313;SDS011;50650;48.180;11.524;2022-11-25T07:58:12;2.30;;;0.90;;
64313;SDS011;50650;48.180;11.524;2022-11-25T08:00:38;5.63;;;1.10;;
64313;SDS011;50650;48.180;11.524;2022-11-25T08:03:04;3.97;;;1.48;;
64313;SDS011;50650;48.180;11.524;2022-11-25T08:05:31;3.63;;;1.33;;
64313;SDS011;50650;48.180;11.524;2022-11-25T08:07:58;3.13;;;0.90;;
64313;SDS011;50650;48.180;11.524;2022-11-25T08:10:26;1.98;;;1.00;;
64313;SDS011;50650;48.180;11.524;2022-11-25T08:12:52;2.75;;;1.00;;
64313;SDS011;50650;48.180;11.524;2022-11-25T08:15:19;2.97;;;0.95;;
64313;SDS011;50650;48.180;11.524;2022-11-25T08:17:45;4.47;;;1.15;;
64313;SDS011;50650;48.180;11.524;2022-11-25T08:20:14;2.60;;;1.00;;
64313;SDS011;50650;48.180;11.524;2022-11-25T08:22:40;2.60;;;1.15;;
64313;SDS011;50650;48.180;11.524;2022-11-25T08:25:07;2.85;;;0.77;;
64313;SDS011;50650;48.180;11.524;2022-11-25T08:27:35;2.25;;;1.25;;
64313;SDS011;50650;48.180;11.524;2022-11-25T08:30:01;1.88;;;0.93;;
64313;SDS011;50650;48.180;11.524;2022-11-25T08:32:28;2.70;;;0.85;;
64313;SDS011;50650;48.180;11.524;2022-11-25T08:34:54;3.10;;;1.00;;
64313;SDS011;50650;48.180;11.524;2022-11-25T08:37:21;2.90;;;0.90;;
64313;SDS011;50650;48.180;11.524;2022-11-25T08:39:48;2.65;;;0.90;;
64313;SDS011;50650;48.180;11.524;2022-11-25T08:42:14;3.58;;;1.15;;
64313;SDS011;50650;48.180;11.524;2022-11-25T08:44:42;4.93;;;1.02;;
64313;SDS011;50650;48.180;11.524;2022-11-25T08:47:09;2.08;;;1.08;;
64313;SDS011;50650;48.180;11.524;2022-11-25T08:49:35;2.10;;;1.10;;
64313;SDS011;50650;48.180;11.524;2022-11-25T08:52:02;9.25;;;3.90;;
64313;SDS011;50650;48.180;11.524;2022-11-25T08:54:29;8.40;;;2.17;;
64313;SDS011;50650;48.180;11.524;2022-11-25T08:56:55;3.83;;;1.38;;
64313;SDS011;50650;48.180;11.524;2022-11-25T08:59:22;5.07;;;1.33;;
64313;SDS011;50650;48.180;11.524;2022-11-25T09:01:50;5.28;;;1.55;;
64313;SDS011;50650;48.180;11.524;2022-11-25T09:04:17;6.43;;;2.10;;
64313;SDS011;50650;48.180;11.524;2022-11-25T09:06:43;2.75;;;1.35;;
64313;SDS011;50650;48.180;11.524;2022-11-25T09:09:10;5.25;;;1.92;;
64313;SDS011;50650;48.180;11.524;2022-11-25T09:11:36;6.22;;;1.80;;
64313;SDS011;50650;48.180;11.524;2022-11-25T09:14:03;2.95;;;1.73;;
64313;SDS011;50650;48.180;11.524;2022-11-25T09:16:29;2.90;;;2.03;;
64313;SDS011;50650;48.180;11.524;2022-11-25T09:18:57;2.63;;;1.50;;
64313;SDS011;50650;48.180;11.524;2022-11-25T09:21:24;5.38;;;1.67;;
64313;SDS011;50650;48.180;11.524;2022-11-25T09:23:51;4.53;;;2.00;;
64313;SDS011;50650;48.180;11.524;2022-11-25T09:26:20;2.67;;;1.52;;
64313;SDS011;50650;48.180;11.524;2022-11-25T09:28:47;2.80;;;1.17;;
64313;SDS011;50650;48.180;11.524;2022-11-25T09:31:14;3.95;;;1.67;;
64313;SDS011;50650;48.180;11.524;2022-11-25T09:33:41;1.85;;;1.23;;
64313;SDS011;50650;48.180;11.524;2022-11-25T09:36:09;4.55;;;1.40;;
64313;SDS011;50650;48.180;11.524;2022-11-25T09:38:37;1.75;;;1.27;;
64313;SDS011;50650;48.180;11.524;2022-11-25T09:41:04;2.80;;;1.50;;
64313;SDS011;50650;48.180;11.524;2022-11-25T09:43:37;3.33;;;1.23;;
64313;SDS011;50650;48.180;11.524;2022-11-25T09:46:37;2.65;;;1.85;;
64313;SDS011;50650;48.180;11.524;2022-11-25T09:51:49;7.15;;;1.40;;
64313;SDS011;50650;48.180;11.524;2022-11-25T09:54:23;5.75;;;1.38;;
64313;SDS011;50650;48.180;11.524;2022-11-25T09:56:55;5.22;;;1.40;;
64313;SDS011;50650;48.180;11.524;2022-11-25T09:59:30;2.60;;;1.40;;
64313;SDS011;50650;48.180;11.524;2022-11-25T10:02:00;2.83;;;1.50;;
64313;SDS011;50650;48.180;11.524;2022-11-25T10:04:29;2.70;;;1.42;;
64313;SDS011;50650;48.180;11.524;2022-11-25T10:07:00;1.65;;;0.90;;
64313;SDS011;50650;48.180;11.524;2022-11-25T10:09:28;1.90;;;1.00;;
64313;SDS011;50650;48.180;11.524;2022-11-25T10:11:55;2.30;;;0.88;;
64313;SDS011;50650;48.180;11.524;2022-11-25T10:14:26;5.38;;;1.20;;
64313;SDS011;50650;48.180;11.524;2022-11-25T10:16:56;2.50;;;0.75;;
64313;SDS011;50650;48.180;11.524;2022-11-25T10:19:31;3.40;;;1.05;;
64313;SDS011;50650;48.180;11.524;2022-11-25T10:22:07;3.75;;;0.88;;
64313;SDS011;50650;48.180;11.524;2022-11-25T10:24:47;2.90;;;0.90;;
64313;SDS011;50650;48.180;11.524;2022-11-25T10:27:17;2.00;;;0.75;;
64313;SDS011;50650;48.180;11.524;2022-11-25T10:29:45;1.90;;;0.98;;
64313;SDS011;50650;48.180;11.524;2022-11-25T10:32:19;2.10;;;1.08;;
64313;SDS011;50650;48.180;11.524;2022-11-25T10:34:48;2.72;;;1.33;;
64313;SDS011;50650;48.180;11.524;2022-11-25T10:37:21;2.10;;;1.00;;
64313;SDS011;50650;48.180;11.524;2022-11-25T10:39:51;1.85;;;0.90;;
64313;SDS011;50650;48.180;11.524;2022-11-25T10:42:18;2.58;;;1.20;;
64313;SDS011;50650;48.180;11.524;2022-11-25T10:44:46;1.50;;;1.10;;
64313;SDS011;50650;48.180;11.524;2022-11-25T10:47:29;2.60;;;0.90;;
64313;SDS011;50650;48.180;11.524;2022-11-25T10:50:04;1.88;;;1.00;;
64313;SDS011;50650;48.180;11.524;2022-11-25T10:52:39;1.83;;;0.82;;
64313;SDS011;50650;48.180;11.524;2022-11-25T10:55:09;3.33;;;1.10;;
64313;SDS011;50650;48.180;11.524;2022-11-25T10:57:37;2.20;;;0.88;;
64313;SDS011;50650;48.180;11.524;2022-11-25T11:00:04;1.77;;;0.88;;
64313;SDS011;50650;48.180;11.524;2022-11-25T11:02:36;1.98;;;0.88;;
64313;SDS011;50650;48.180;11.524;2022-11-25T11:07:44;2.17;;;1.10;;
64313;SDS011;50650;48.180;11.524;2022-11-25T11:10:16;4.75;;;1.00;;
64313;SDS011;50650;48.180;11.524;2022-11-25T11:12:53;4.10;;;1.20;;
64313;SDS011;50650;48.180;11.524;2022-11-25T11:15:22;1.88;;;0.90;;
64313;SDS011;50650;48.180;11.524;2022-11-25T11:17:50;3.20;;;1.10;;
64313;SDS011;50650;48.180;11.524;2022-11-25T11:20:18;4.03;;;0.90;;
64313;SDS011;50650;48.180;11.524;2022-11-25T11:23:00;2.25;;;0.80;;
64313;SDS011;50650;48.180;11.524;2022-11-25T11:25:30;4.00;;;0.98;;
64313;SDS011;50650;48.180;11.524;2022-11-25T11:27:58;4.35;;;1.08;;
64313;SDS011;50650;48.180;11.524;2022-11-25T11:30:25;3.53;;;1.10;;
64313;SDS011;50650;48.180;11.524;2022-11-25T11:32:54;3.17;;;1.40;;
64313;SDS011;50650;48.180;11.524;2022-11-25T11:35:24;3.88;;;0.98;;
64313;SDS011;50650;48.180;11.524;2022-11-25T11:37:56;1.20;;;0.70;;
64313;SDS011;50650;48.180;11.524;2022-11-25T11:40:30;2.30;;;0.90;;
64313;SDS011;50650;48.180;11.524;2022-11-25T11:43:04;2.50;;;0.93;;
64313;SDS011;50650;48.180;11.524;2022-11-25T11:45:42;2.45;;;0.90;;
64313;SDS011;50650;48.180;11.524;2022-11-25T11:48:20;2.72;;;0.70;;
64313;SDS011;50650;48.180;11.524;2022-11-25T11:50:50;2.33;;;0.60;;
64313;SDS011;50650;48.180;11.524;2022-11-25T11:53:24;2.58;;;0.70;;
64313;SDS011;50650;48.180;11.524;2022-11-25T11:55:56;1.95;;;0.77;;
64313;SDS011;50650;48.180;11.524;2022-11-25T11:58:28;2.10;;;0.75;;
64313;SDS011;50650;48.180;11.524;2022-11-25T12:01:05;1.77;;;0.50;;
64313;SDS011;50650;48.180;11.524;2022-11-25T12:03:39;2.92;;;0.57;;
64313;SDS011;50650;48.180;11.524;2022-11-25T12:06:09;3.08;;;0.65;;
64313;SDS011;50650;48.180;11.524;2022-11-25T12:08:40;2.95;;;0.77;;
64313;SDS011;50650;48.180;11.524;2022-11-25T12:11:12;1.83;;;0.75;;
64313;SDS011;50650;48.180;11.524;2022-11-25T12:13:42;1.70;;;0.70;;
64313;SDS011;50650;48.180;11.524;2022-11-25T12:16:14;1.88;;;0.70;;
64313;SDS011;50650;48.180;11.524;2022-11-25T12:18:44;2.42;;;0.90;;
64313;SDS011;50650;48.180;11.524;2022-11-25T12:21:16;1.52;;;0.63;;
64313;SDS011;50650;48.180;11.524;2022-11-25T12:23:52;2.05;;;1.00;;
64313;SDS011;50650;48.180;11.524;2022-11-25T12:26:23;3.83;;;0.82;;
64313;SDS011;50650;48.180;11.524;2022-11-25T12:28:54;2.47;;;1.10;;
64313;SDS011;50650;48.180;11.524;2022-11-25T12:31:23;5.25;;;0.75;;
64313;SDS011;50650;48.180;11.524;2022-11-25T12:33:53;4.38;;;1.20;;
64313;SDS011;50650;48.180;11.524;2022-11-25T12:36:25;1.70;;;0.98;;
64313;SDS011;50650;48.180;11.524;2022-11-25T12:38:59;3.28;;;0.82;;
64313;SDS011;50650;48.180;11.524;2022-11-25T12:41:28;5.07;;;1.58;;
64313;SDS011;50650;48.180;11.524;2022-11-25T12:44:02;3.80;;;0.80;;
64313;SDS011;50650;48.180;11.524;2022-11-25T12:46:32;2.13;;;0.88;;
64313;SDS011;50650;48.180;11.524;2022-11-25T12:49:00;3.13;;;0.80;;
64313;SDS011;50650;48.180;11.524;2022-11-25T12:51:38;1.80;;;0.80;;
64313;SDS011;50650;48.180;11.524;2022-11-25T12:54:16;5.22;;;0.93;;
64313;SDS011;50650;48.180;11.524;2022-11-25T12:57:13;1.85;;;0.60;;
64313;SDS011;50650;48.180;11.524;2022-11-25T12:59:51;3.90;;;1.02;;
64313;SDS011;50650;48.180;11.524;2022-11-25T13:02:34;2.20;;;0.88;;
64313;SDS011;50650;48.180;11.524;2022-11-25T13:05:34;7.53;;;1.60;;
64313;SDS011;50650;48.180;11.524;2022-11-25T13:08:14;1.92;;;0.90;;
64313;SDS011;50650;48.180;11.524;2022-11-25T13:13:46;2.88;;;1.10;;
64313;SDS011;50650;48.180;11.524;2022-11-25T13:16:15;2.50;;;1.02;;
64313;SDS011;50650;48.180;11.524;2022-11-25T13:18:42;2.90;;;1.30;;
64313;SDS011;50650;48.180;11.524;2022-11-25T13:21:10;5.93;;;1.10;;
64313;SDS011;50650;48.180;11.524;2022-11-25T13:23:47;3.97;;;1.42;;
64313;SDS011;50650;48.180;11.524;2022-11-25T13:29:05;3.20;;;0.85;;
64313;SDS011;50650;48.180;11.524;2022-11-25T13:31:54;2.95;;;0.90;;
64313;SDS011;50650;48.180;11.524;2022-11-25T13:34:23;2.10;;;1.00;;
64313;SDS011;50650;48.180;11.524;2022-11-25T13:36:51;1.90;;;0.90;;
64313;SDS011;50650;48.180;11.524;2022-11-25T13:39:27;4.75;;;1.20;;
64313;SDS011;50650;48.180;11.524;2022-11-25T13:42:00;2.60;;;0.88;;
64313;SDS011;50650;48.180;11.524;2022-11-25T13:44:29;1.92;;;1.00;;
64313;SDS011;50650;48.180;11.524;2022-11-25T13:47:00;4.97;;;1.77;;
64313;SDS011;50650;48.180;11.524;2022-11-25T13:49:50;6.43;;;1.35;;
64313;SDS011;50650;48.180;11.524;2022-11-25T13:52:27;3.92;;;1.48;;
64313;SDS011;50650;48.180;11.524;2022-11-25T13:54:57;6.90;;;1.05;;
64313;SDS011;50650;48.180;11.524;2022-11-25T13:57:27;2.55;;;0.95;;
64313;SDS011;50650;48.180;11.524;2022-11-25T13:59:55;8.45;;;1.75;;
64313;SDS011;50650;48.180;11.524;2022-11-25T14:02:29;3.03;;;1.20;;
64313;SDS011;50650;48.180;11.524;2022-11-25T14:04:58;5.28;;;1.30;;
64313;SDS011;50650;48.180;11.524;2022-11-25T14:07:32;3.65;;;1.30;;
64313;SDS011;50650;48.180;11.524;2022-11-25T14:10:08;4.72;;;1.30;;
64313;SDS011;50650;48.180;11.524;2022-11-25T14:12:45;6.85;;;1.50;;
64313;SDS011;50650;48.180;11.524;2022-11-25T14:15:28;4.25;;;1.45;;
64313;SDS011;50650;48.180;11.524;2022-11-25T14:18:11;4.43;;;1.33;;
64313;SDS011;50650;48.180;11.524;2022-11-25T14:20:44;4.50;;;1.50;;
64313;SDS011;50650;48.180;11.524;2022-11-25T14:23:27;8.65;;;1.92;;
64313;SDS011;50650;48.180;11.524;2022-11-25T14:26:07;6.55;;;1.55;;
64313;SDS011;50650;48.180;11.524;2022-11-25T14:28:38;5.85;;;2.33;;
64313;SDS011;50650;48.180;11.524;2022-11-25T14:31:07;11.02;;;2.55;;
64313;SDS011;50650;48.180;11.524;2022-11-25T14:33:35;4.97;;;2.17;;
64313;SDS011;50650;48.180;11.524;2022-11-25T14:36:08;4.47;;;2.10;;
64313;SDS011;50650;48.180;11.524;2022-11-25T14:38:39;4.55;;;1.60;;
64313;SDS011;50650;48.180;11.524;2022-11-25T14:41:10;3.30;;;1.30;;
64313;SDS011;50650;48.180;11.524;2022-11-25T14:43:44;3.13;;;1.33;;
64313;SDS011;50650;48.180;11.524;2022-11-25T14:46:14;4.45;;;1.45;;
64313;SDS011;50650;48.180;11.524;2022-11-25T14:48:42;4.72;;;1.63;;
64313;SDS011;50650;48.180;11.524;2022-11-25T14:51:09;7.78;;;1.75;;
64313;SDS011;50650;48.180;11.524;2022-11-25T14:53:38;5.07;;;1.63;;
64313;SDS011;50650;48.180;11.524;2022-11-25T14:56:06;4.32;;;1.60;;